sensor_id;sensor_type;location;lat;lon;timestamp;pressure;altitude;pressure_sealevel;temperature;humidity
30081;BME280;16902;50.816;12.828;2023-06-22T00:02:38;98115.63;;;15.60;100.00
30081;BME280;16902;50.816;12.828;2023-06-22T00:07:40;98121.47;;;15.56;100.00
30081;BME280;16902;50.816;12.828;2023-06-22T00:12:41;98112.00;;;15.48;100.00
30081;BME280;16902;50.816;12.828;2023-06-22T00:17:43;98095.44;;;15.41;100.00
30081;BME280;16902;50.816;12.828;2023-06-22T00:22:45;98097.47;;;15.39;100.00
30081;BME280;16902;50.816;12.828;2023-06-22T00:27:47;98095.44;;;15.34;100.00
30081;BME280;16902;50.816;12.828;2023-06-22T00:32:48;98106.75;;;15.35;100.00
30081;BME280;16902;50.816;12.828;2023-06-22T00:37:50;98116.44;;;15.41;100.00
30081;BME280;16902;50.816;12.828;2023-06-22T00:42:55;98109.97;;;15.37;100.00
30081;BME280;16902;50.816;12.828;2023-06-22T00:47:58;98113.41;;;15.31;100.00
30081;BME280;16902;50.816;12.828;2023-06-22T00:53:05;98099.66;;;15.22;100.00
30081;BME280;16902;50.816;12.828;2023-06-22T00:58:11;98105.13;;;15.14;100.00
30081;BME280;16902;50.816;12.828;2023-06-22T01:03:13;98095.84;;;15.11;100.00
30081;BME280;16902;50.816;12.828;2023-06-22T01:13:31;98106.53;;;15.10;100.00
30081;BME280;16902;50.816;12.828;2023-06-22T01:18:36;98108.13;;;15.04;100.00
30081;BME280;16902;50.816;12.828;2023-06-22T01:23:51;98093.56;;;14.88;100.00
30081;BME280;16902;50.816;12.828;2023-06-22T01:28:56;98095.38;;;14.81;100.00
30081;BME280;16902;50.816;12.828;2023-06-22T01:34:00;98103.44;;;14.80;100.00
30081;BME280;16902;50.816;12.828;2023-06-22T01:39:05;98094.38;;;14.76;100.00
30081;BME280;16902;50.816;12.828;2023-06-22T01:44:08;98088.91;;;14.71;100.00
30081;BME280;16902;50.816;12.828;2023-06-22T01:49:10;98081.63;;;14.66;100.00
30081;BME280;16902;50.816;12.828;2023-06-22T01:54:12;98078.00;;;14.67;100.00
30081;BME280;16902;50.816;12.828;2023-06-22T01:59:20;98080.41;;;14.62;100.00
30081;BME280;16902;50.816;12.828;2023-06-22T02:04:33;98073.31;;;14.49;100.00
30081;BME280;16902;50.816;12.828;2023-06-22T02:09:38;98088.06;;;14.57;100.00
30081;BME280;16902;50.816;12.828;2023-06-22T02:14:44;98085.78;;;14.47;100.00
30081;BME280;16902;50.816;12.828;2023-06-22T02:19:49;98093.84;;;14.46;100.00
30081;BME280;16902;50.816;12.828;2023-06-22T02:24:50;98105.75;;;14.48;100.00
30081;BME280;16902;50.816;12.828;2023-06-22T02:29:53;98101.28;;;14.42;100.00
30081;BME280;16902;50.816;12.828;2023-06-22T02:34:55;98088.97;;;14.36;100.00
30081;BME280;16902;50.816;12.828;2023-06-22T02:39:58;98079.47;;;14.28;100.00
30081;BME280;16902;50.816;12.828;2023-06-22T02:45:00;98067.16;;;14.22;100.00
30081;BME280;16902;50.816;12.828;2023-06-22T02:50:02;98062.50;;;14.18;100.00
30081;BME280;16902;50.816;12.828;2023-06-22T02:55:07;98087.34;;;14.35;100.00
30081;BME280;16902;50.816;12.828;2023-06-22T03:00:10;98081.88;;;14.30;100.00
30081;BME280;16902;50.816;12.828;2023-06-22T03:05:20;98089.72;;;14.23;100.00
30081;BME280;16902;50.816;12.828;2023-06-22T03:10:22;98080.03;;;14.17;100.00
30081;BME280;16902;50.816;12.828;2023-06-22T03:15:24;98071.16;;;14.18;100.00
30081;BME280;16902;50.816;12.828;2023-06-22T03:20:27;98063.91;;;14.20;100.00
30081;BME280;16902;50.816;12.828;2023-06-22T03:25:35;98061.13;;;14.28;100.00
30081;BME280;16902;50.816;12.828;2023-06-22T03:30:37;98072.81;;;14.32;100.00
30081;BME280;16902;50.816;12.828;2023-06-22T03:35:38;98067.41;;;14.40;100.00
30081;BME280;16902;50.816;12.828;2023-06-22T03:40:40;98056.09;;;14.27;100.00
30081;BME280;16902;50.816;12.828;2023-06-22T03:45:42;98065.41;;;14.36;100.00
30081;BME280;16902;50.816;12.828;2023-06-22T03:50:47;98071.69;;;14.48;100.00
30081;BME280;16902;50.816;12.828;2023-06-22T03:55:50;98074.16;;;14.63;100.00
30081;BME280;16902;50.816;12.828;2023-06-22T04:00:52;98091.97;;;14.81;100.00
30081;BME280;16902;50.816;12.828;2023-06-22T04:05:54;98120.03;;;15.07;100.00
30081;BME280;16902;50.816;12.828;2023-06-22T04:10:56;98121.88;;;15.26;100.00
30081;BME280;16902;50.816;12.828;2023-06-22T04:15:58;98129.97;;;15.58;100.00
30081;BME280;16902;50.816;12.828;2023-06-22T04:20:59;98151.97;;;16.03;100.00
30081;BME280;16902;50.816;12.828;2023-06-22T04:26:01;98176.72;;;16.47;100.00
30081;BME280;16902;50.816;12.828;2023-06-22T04:31:03;98199.72;;;16.72;100.00
30081;BME280;16902;50.816;12.828;2023-06-22T04:36:06;98199.00;;;16.96;100.00
30081;BME280;16902;50.816;12.828;2023-06-22T04:41:07;98199.47;;;17.25;100.00
30081;BME280;16902;50.816;12.828;2023-06-22T04:46:11;98194.72;;;17.40;100.00
30081;BME280;16902;50.816;12.828;2023-06-22T04:51:12;98184.16;;;17.46;100.00
30081;BME280;16902;50.816;12.828;2023-06-22T04:56:14;98167.34;;;17.47;100.00
30081;BME280;16902;50.816;12.828;2023-06-22T05:01:17;98177.56;;;17.62;100.00
30081;BME280;16902;50.816;12.828;2023-06-22T05:06:19;98159.13;;;18.31;100.00
30081;BME280;16902;50.816;12.828;2023-06-22T05:11:21;98161.50;;;19.06;100.00
30081;BME280;16902;50.816;12.828;2023-06-22T05:16:23;98174.13;;;19.57;100.00
30081;BME280;16902;50.816;12.828;2023-06-22T05:21:27;98153.66;;;19.83;100.00
30081;BME280;16902;50.816;12.828;2023-06-22T05:26:30;98159.47;;;19.96;100.00
30081;BME280;16902;50.816;12.828;2023-06-22T05:31:32;98121.09;;;20.17;100.00
30081;BME280;16902;50.816;12.828;2023-06-22T05:36:34;98052.09;;;19.67;100.00
30081;BME280;16902;50.816;12.828;2023-06-22T05:41:35;97949.22;;;19.60;100.00
30081;BME280;16902;50.816;12.828;2023-06-22T05:46:43;97923.81;;;19.99;100.00
30081;BME280;16902;50.816;12.828;2023-06-22T05:51:49;97964.19;;;20.52;100.00
30081;BME280;16902;50.816;12.828;2023-06-22T05:56:51;97995.38;;;20.67;100.00
30081;BME280;16902;50.816;12.828;2023-06-22T06:01:53;98001.84;;;20.59;100.00
30081;BME280;16902;50.816;12.828;2023-06-22T06:06:55;98018.97;;;21.02;100.00
30081;BME280;16902;50.816;12.828;2023-06-22T06:11:56;98023.00;;;21.55;100.00
30081;BME280;16902;50.816;12.828;2023-06-22T06:16:58;98018.41;;;22.33;100.00
30081;BME280;16902;50.816;12.828;2023-06-22T06:22:00;98045.59;;;22.94;100.00
30081;BME280;16902;50.816;12.828;2023-06-22T06:27:01;98043.44;;;22.91;100.00
30081;BME280;16902;50.816;12.828;2023-06-22T06:32:06;98047.28;;;22.78;100.00
30081;BME280;16902;50.816;12.828;2023-06-22T06:37:08;98040.06;;;22.74;100.00
30081;BME280;16902;50.816;12.828;2023-06-22T06:42:10;98052.63;;;22.56;100.00
30081;BME280;16902;50.816;12.828;2023-06-22T06:47:12;98045.72;;;22.55;100.00
30081;BME280;16902;50.816;12.828;2023-06-22T06:52:14;98053.16;;;22.53;100.00
30081;BME280;16902;50.816;12.828;2023-06-22T06:57:16;98054.47;;;22.56;100.00
30081;BME280;16902;50.816;12.828;2023-06-22T07:02:17;98055.16;;;22.68;100.00
30081;BME280;16902;50.816;12.828;2023-06-22T07:07:20;98061.81;;;22.98;100.00
30081;BME280;16902;50.816;12.828;2023-06-22T07:12:22;98049.69;;;23.44;100.00
30081;BME280;16902;50.816;12.828;2023-06-22T07:17:24;98063.75;;;23.77;100.00
30081;BME280;16902;50.816;12.828;2023-06-22T07:22:25;98056.94;;;23.96;100.00
30081;BME280;16902;50.816;12.828;2023-06-22T07:27:27;98054.09;;;24.08;100.00
30081;BME280;16902;50.816;12.828;2023-06-22T07:32:29;98047.78;;;24.34;100.00
30081;BME280;16902;50.816;12.828;2023-06-22T07:37:31;98041.22;;;24.52;100.00
30081;BME280;16902;50.816;12.828;2023-06-22T07:42:35;98042.28;;;24.56;100.00
30081;BME280;16902;50.816;12.828;2023-06-22T07:47:37;98041.53;;;24.71;100.00
30081;BME280;16902;50.816;12.828;2023-06-22T07:52:39;98045.03;;;25.18;100.00
30081;BME280;16902;50.816;12.828;2023-06-22T07:57:43;98033.84;;;25.26;100.00
30081;BME280;16902;50.816;12.828;2023-06-22T08:02:46;98035.34;;;25.62;100.00
30081;BME280;16902;50.816;12.828;2023-06-22T08:07:48;98035.88;;;25.75;100.00
30081;BME280;16902;50.816;12.828;2023-06-22T08:12:50;98032.09;;;25.91;100.00
30081;BME280;16902;50.816;12.828;2023-06-22T08:17:53;98029.63;;;26.10;100.00
30081;BME280;16902;50.816;12.828;2023-06-22T08:22:55;98027.25;;;26.08;100.00
30081;BME280;16902;50.816;12.828;2023-06-22T08:27:59;98013.25;;;26.32;100.00
30081;BME280;16902;50.816;12.828;2023-06-22T08:33:01;98013.00;;;26.28;100.00
30081;BME280;16902;50.816;12.828;2023-06-22T08:38:03;98012.16;;;26.82;100.00
30081;BME280;16902;50.816;12.828;2023-06-22T08:43:04;98006.88;;;26.72;100.00
30081;BME280;16902;50.816;12.828;2023-06-22T08:48:06;98010.44;;;26.97;100.00
30081;BME280;16902;50.816;12.828;2023-06-22T08:53:08;98016.75;;;27.11;100.00
30081;BME280;16902;50.816;12.828;2023-06-22T08:58:10;98004.94;;;27.46;100.00
30081;BME280;16902;50.816;12.828;2023-06-22T09:03:12;98007.91;;;27.45;100.00
30081;BME280;16902;50.816;12.828;2023-06-22T09:08:14;98006.34;;;27.38;100.00
30081;BME280;16902;50.816;12.828;2023-06-22T09:13:15;98002.16;;;28.04;100.00
30081;BME280;16902;50.816;12.828;2023-06-22T09:18:17;98007.16;;;28.11;100.00
30081;BME280;16902;50.816;12.828;2023-06-22T09:23:19;97992.41;;;28.13;100.00
30081;BME280;16902;50.816;12.828;2023-06-22T09:28:21;97974.69;;;28.74;100.00
30081;BME280;16902;50.816;12.828;2023-06-22T09:33:22;97982.28;;;28.67;100.00
30081;BME280;16902;50.816;12.828;2023-06-22T09:38:24;97974.25;;;28.67;100.00
30081;BME280;16902;50.816;12.828;2023-06-22T09:43:27;97974.53;;;28.84;100.00
30081;BME280;16902;50.816;12.828;2023-06-22T09:48:29;97968.78;;;28.58;100.00
30081;BME280;16902;50.816;12.828;2023-06-22T09:53:33;97974.03;;;29.29;100.00
30081;BME280;16902;50.816;12.828;2023-06-22T09:58:36;97964.19;;;29.10;100.00
30081;BME280;16902;50.816;12.828;2023-06-22T10:03:37;97955.06;;;28.79;100.00
30081;BME280;16902;50.816;12.828;2023-06-22T10:08:40;97956.09;;;29.84;100.00
30081;BME280;16902;50.816;12.828;2023-06-22T10:13:42;97969.00;;;29.41;100.00
30081;BME280;16902;50.816;12.828;2023-06-22T10:18:44;97961.31;;;28.36;100.00
30081;BME280;16902;50.816;12.828;2023-06-22T10:23:45;97958.75;;;29.43;100.00
30081;BME280;16902;50.816;12.828;2023-06-22T10:28:47;97943.06;;;29.50;100.00
30081;BME280;16902;50.816;12.828;2023-06-22T10:33:49;97946.53;;;29.78;100.00
30081;BME280;16902;50.816;12.828;2023-06-22T10:38:51;97942.34;;;30.13;100.00
30081;BME280;16902;50.816;12.828;2023-06-22T10:43:54;97932.06;;;29.79;100.00
30081;BME280;16902;50.816;12.828;2023-06-22T10:48:55;97926.16;;;30.94;100.00
30081;BME280;16902;50.816;12.828;2023-06-22T10:54:00;97931.44;;;30.32;100.00
30081;BME280;16902;50.816;12.828;2023-06-22T10:59:01;97922.34;;;30.06;100.00
30081;BME280;16902;50.816;12.828;2023-06-22T11:04:03;97919.78;;;30.37;100.00
30081;BME280;16902;50.816;12.828;2023-06-22T11:09:06;97916.81;;;31.23;100.00
30081;BME280;16902;50.816;12.828;2023-06-22T11:14:13;97913.00;;;31.15;100.00
30081;BME280;16902;50.816;12.828;2023-06-22T11:19:15;97915.88;;;33.44;100.00
30081;BME280;16902;50.816;12.828;2023-06-22T11:24:16;97916.03;;;35.80;100.00
30081;BME280;16902;50.816;12.828;2023-06-22T11:29:18;97903.94;;;34.38;100.00
30081;BME280;16902;50.816;12.828;2023-06-22T11:34:36;97895.84;;;32.17;100.00
30081;BME280;16902;50.816;12.828;2023-06-22T11:39:38;97901.03;;;34.64;100.00
30081;BME280;16902;50.816;12.828;2023-06-22T11:44:43;97890.50;;;35.93;86.40
30081;BME280;16902;50.816;12.828;2023-06-22T11:49:45;97886.25;;;34.61;100.00
30081;BME280;16902;50.816;12.828;2023-06-22T11:54:47;97874.44;;;38.02;76.57
30081;BME280;16902;50.816;12.828;2023-06-22T11:59:48;97866.84;;;36.90;98.58
30081;BME280;16902;50.816;12.828;2023-06-22T12:04:50;97865.19;;;36.73;86.39
30081;BME280;16902;50.816;12.828;2023-06-22T12:09:54;97852.22;;;37.46;73.01
30081;BME280;16902;50.816;12.828;2023-06-22T12:14:55;97839.78;;;35.41;92.61
30081;BME280;16902;50.816;12.828;2023-06-22T12:19:58;97828.25;;;34.59;100.00
30081;BME280;16902;50.816;12.828;2023-06-22T12:25:01;97827.84;;;36.83;85.89
30081;BME280;16902;50.816;12.828;2023-06-22T12:30:03;97840.09;;;39.02;62.06
30081;BME280;16902;50.816;12.828;2023-06-22T12:35:06;97826.16;;;37.96;64.19
30081;BME280;16902;50.816;12.828;2023-06-22T12:40:13;97823.25;;;37.18;75.74
30081;BME280;16902;50.816;12.828;2023-06-22T12:45:15;97820.91;;;38.49;64.61
30081;BME280;16902;50.816;12.828;2023-06-22T12:50:16;97817.78;;;40.06;56.68
30081;BME280;16902;50.816;12.828;2023-06-22T12:55:18;97813.91;;;42.67;49.21
30081;BME280;16902;50.816;12.828;2023-06-22T13:00:20;97782.81;;;41.73;49.64
30081;BME280;16902;50.816;12.828;2023-06-22T13:05:22;97790.56;;;41.68;50.81
30081;BME280;16902;50.816;12.828;2023-06-22T13:10:24;97785.25;;;42.10;48.51
30081;BME280;16902;50.816;12.828;2023-06-22T13:15:29;97779.50;;;40.80;50.19
30081;BME280;16902;50.816;12.828;2023-06-22T13:20:31;97776.78;;;39.99;56.58
30081;BME280;16902;50.816;12.828;2023-06-22T13:25:33;97758.72;;;42.50;48.78
30081;BME280;16902;50.816;12.828;2023-06-22T13:30:34;97763.00;;;43.16;48.24
30081;BME280;16902;50.816;12.828;2023-06-22T13:35:36;97761.09;;;40.26;53.52
30081;BME280;16902;50.816;12.828;2023-06-22T13:40:39;97740.91;;;35.07;80.07
30081;BME280;16902;50.816;12.828;2023-06-22T13:45:41;97725.25;;;33.31;100.00
30081;BME280;16902;50.816;12.828;2023-06-22T13:50:43;97738.03;;;36.72;78.82
30081;BME280;16902;50.816;12.828;2023-06-22T13:55:45;97739.91;;;41.04;58.46
30081;BME280;16902;50.816;12.828;2023-06-22T14:00:49;97716.09;;;40.50;51.17
30081;BME280;16902;50.816;12.828;2023-06-22T14:05:51;97706.59;;;38.95;63.48
30081;BME280;16902;50.816;12.828;2023-06-22T14:10:55;97699.34;;;35.40;84.61
30081;BME280;16902;50.816;12.828;2023-06-22T14:15:57;97687.03;;;33.29;100.00
30081;BME280;16902;50.816;12.828;2023-06-22T14:20:59;97681.38;;;33.22;100.00
30081;BME280;16902;50.816;12.828;2023-06-22T14:26:00;97685.75;;;38.07;68.12
30081;BME280;16902;50.816;12.828;2023-06-22T14:31:02;97675.66;;;39.40;60.99
30081;BME280;16902;50.816;12.828;2023-06-22T14:36:04;97661.41;;;39.20;60.66
30081;BME280;16902;50.816;12.828;2023-06-22T14:41:06;97641.00;;;37.59;65.54
30081;BME280;16902;50.816;12.828;2023-06-22T14:46:17;97640.41;;;36.56;73.08
30081;BME280;16902;50.816;12.828;2023-06-22T14:51:19;97643.41;;;34.91;83.03
30081;BME280;16902;50.816;12.828;2023-06-22T14:56:21;97636.50;;;35.34;83.58
30081;BME280;16902;50.816;12.828;2023-06-22T15:01:23;97625.94;;;34.89;86.22
30081;BME280;16902;50.816;12.828;2023-06-22T15:06:25;97622.69;;;35.51;80.96
30081;BME280;16902;50.816;12.828;2023-06-22T15:11:28;97616.59;;;36.65;70.70
30081;BME280;16902;50.816;12.828;2023-06-22T15:16:30;97619.16;;;38.20;62.66
30081;BME280;16902;50.816;12.828;2023-06-22T15:21:32;97618.91;;;40.34;53.14
30081;BME280;16902;50.816;12.828;2023-06-22T15:26:34;97608.16;;;39.23;54.06
30081;BME280;16902;50.816;12.828;2023-06-22T15:31:36;97600.59;;;36.79;71.51
30081;BME280;16902;50.816;12.828;2023-06-22T15:36:38;97585.88;;;32.52;100.00
30081;BME280;16902;50.816;12.828;2023-06-22T15:41:40;97559.72;;;31.84;100.00
30081;BME280;16902;50.816;12.828;2023-06-22T15:46:45;97545.78;;;32.50;100.00
30081;BME280;16902;50.816;12.828;2023-06-22T15:51:47;97553.22;;;33.86;100.00
30081;BME280;16902;50.816;12.828;2023-06-22T15:56:49;97552.41;;;36.53;74.25
30081;BME280;16902;50.816;12.828;2023-06-22T16:01:51;97547.06;;;32.44;100.00
30081;BME280;16902;50.816;12.828;2023-06-22T16:06:53;97532.66;;;31.08;100.00
30081;BME280;16902;50.816;12.828;2023-06-22T16:11:56;97526.97;;;30.49;100.00
30081;BME280;16902;50.816;12.828;2023-06-22T16:16:58;97529.25;;;29.44;100.00
30081;BME280;16902;50.816;12.828;2023-06-22T16:22:02;97537.75;;;29.38;100.00
30081;BME280;16902;50.816;12.828;2023-06-22T16:27:04;97513.91;;;29.99;100.00
30081;BME280;16902;50.816;12.828;2023-06-22T16:32:07;97513.97;;;30.25;100.00
30081;BME280;16902;50.816;12.828;2023-06-22T16:37:09;97508.13;;;30.31;100.00
30081;BME280;16902;50.816;12.828;2023-06-22T16:42:11;97498.38;;;30.61;100.00
30081;BME280;16902;50.816;12.828;2023-06-22T16:47:13;97494.75;;;29.91;100.00
30081;BME280;16902;50.816;12.828;2023-06-22T16:52:15;97487.72;;;29.33;100.00
30081;BME280;16902;50.816;12.828;2023-06-22T16:57:18;97478.56;;;29.26;100.00
30081;BME280;16902;50.816;12.828;2023-06-22T17:02:24;97464.66;;;29.24;100.00
30081;BME280;16902;50.816;12.828;2023-06-22T17:07:27;97451.22;;;28.92;100.00
30081;BME280;16902;50.816;12.828;2023-06-22T17:12:30;97443.91;;;28.84;100.00
30081;BME280;16902;50.816;12.828;2023-06-22T17:17:33;97434.66;;;28.68;100.00
30081;BME280;16902;50.816;12.828;2023-06-22T17:22:35;97432.34;;;28.75;100.00
30081;BME280;16902;50.816;12.828;2023-06-22T17:27:39;97426.50;;;28.51;100.00
30081;BME280;16902;50.816;12.828;2023-06-22T17:32:45;97421.94;;;28.15;100.00
30081;BME280;16902;50.816;12.828;2023-06-22T17:37:54;97423.31;;;27.76;100.00
30081;BME280;16902;50.816;12.828;2023-06-22T17:43:03;97394.19;;;27.47;100.00
30081;BME280;16902;50.816;12.828;2023-06-22T17:48:10;97381.19;;;27.27;100.00
30081;BME280;16902;50.816;12.828;2023-06-22T17:53:12;97375.88;;;27.13;100.00
30081;BME280;16902;50.816;12.828;2023-06-22T17:58:15;97379.66;;;27.07;100.00
30081;BME280;16902;50.816;12.828;2023-06-22T18:03:23;97382.72;;;26.86;100.00
30081;BME280;16902;50.816;12.828;2023-06-22T18:08:25;97370.03;;;26.78;100.00
30081;BME280;16902;50.816;12.828;2023-06-22T18:13:29;97359.81;;;26.67;100.00
30081;BME280;16902;50.816;12.828;2023-06-22T18:18:33;97349.81;;;26.58;100.00
30081;BME280;16902;50.816;12.828;2023-06-22T18:23:35;97335.66;;;26.58;100.00
30081;BME280;16902;50.816;12.828;2023-06-22T18:28:38;97339.66;;;26.42;100.00
30081;BME280;16902;50.816;12.828;2023-06-22T18:33:40;97335.41;;;26.40;100.00
30081;BME280;16902;50.816;12.828;2023-06-22T18:38:43;97325.66;;;26.17;100.00
30081;BME280;16902;50.816;12.828;2023-06-22T18:43:53;97335.81;;;25.96;100.00
30081;BME280;16902;50.816;12.828;2023-06-22T18:49:11;97345.84;;;25.85;100.00
30081;BME280;16902;50.816;12.828;2023-06-22T18:54:21;97363.03;;;25.74;100.00
30081;BME280;16902;50.816;12.828;2023-06-22T18:59:48;97359.50;;;25.60;100.00
30081;BME280;16902;50.816;12.828;2023-06-22T19:05:08;97352.41;;;25.50;100.00
30081;BME280;16902;50.816;12.828;2023-06-22T19:10:27;97351.03;;;25.34;100.00
30081;BME280;16902;50.816;12.828;2023-06-22T19:15:32;97336.56;;;25.16;100.00
30081;BME280;16902;50.816;12.828;2023-06-22T19:20:35;97309.94;;;25.16;100.00
30081;BME280;16902;50.816;12.828;2023-06-22T19:25:44;97301.09;;;25.21;100.00
30081;BME280;16902;50.816;12.828;2023-06-22T19:30:47;97321.56;;;25.25;100.00
30081;BME280;16902;50.816;12.828;2023-06-22T19:35:49;97310.53;;;25.32;100.00
30081;BME280;16902;50.816;12.828;2023-06-22T19:40:52;97317.28;;;25.48;100.00
30081;BME280;16902;50.816;12.828;2023-06-22T19:45:55;97307.25;;;25.59;100.00
30081;BME280;16902;50.816;12.828;2023-06-22T19:51:03;97299.47;;;25.62;100.00
30081;BME280;16902;50.816;12.828;2023-06-22T19:56:06;97312.53;;;25.64;100.00
30081;BME280;16902;50.816;12.828;2023-06-22T20:01:08;97298.75;;;25.57;100.00
30081;BME280;16902;50.816;12.828;2023-06-22T20:06:12;97286.78;;;25.54;100.00
30081;BME280;16902;50.816;12.828;2023-06-22T20:11:26;97288.94;;;25.52;100.00
30081;BME280;16902;50.816;12.828;2023-06-22T20:16:31;97297.22;;;25.51;100.00
30081;BME280;16902;50.816;12.828;2023-06-22T20:21:33;97319.13;;;25.48;100.00
30081;BME280;16902;50.816;12.828;2023-06-22T20:26:42;97345.16;;;25.56;100.00
30081;BME280;16902;50.816;12.828;2023-06-22T20:31:44;97344.78;;;25.62;100.00
30081;BME280;16902;50.816;12.828;2023-06-22T20:36:46;97326.28;;;25.71;100.00
30081;BME280;16902;50.816;12.828;2023-06-22T20:41:48;97313.31;;;25.64;100.00
30081;BME280;16902;50.816;12.828;2023-06-22T20:46:49;97316.75;;;25.46;100.00
30081;BME280;16902;50.816;12.828;2023-06-22T20:51:51;97299.34;;;25.11;100.00
30081;BME280;16902;50.816;12.828;2023-06-22T20:56:53;97298.41;;;24.73;100.00
30081;BME280;16902;50.816;12.828;2023-06-22T21:01:54;97327.69;;;24.04;100.00
30081;BME280;16902;50.816;12.828;2023-06-22T21:06:57;97377.53;;;23.19;100.00
30081;BME280;16902;50.816;12.828;2023-06-22T21:11:59;97424.28;;;22.69;100.00
30081;BME280;16902;50.816;12.828;2023-06-22T21:17:01;97427.53;;;21.77;100.00
30081;BME280;16902;50.816;12.828;2023-06-22T21:22:03;97424.28;;;21.13;100.00
30081;BME280;16902;50.816;12.828;2023-06-22T21:27:05;97415.28;;;20.71;100.00
30081;BME280;16902;50.816;12.828;2023-06-22T21:32:07;97428.22;;;20.41;100.00
30081;BME280;16902;50.816;12.828;2023-06-22T21:37:08;97458.84;;;20.37;100.00
30081;BME280;16902;50.816;12.828;2023-06-22T21:42:10;97520.03;;;20.23;100.00
30081;BME280;16902;50.816;12.828;2023-06-22T21:47:12;97579.22;;;20.00;100.00
30081;BME280;16902;50.816;12.828;2023-06-22T21:52:14;97587.44;;;19.65;100.00
30081;BME280;16902;50.816;12.828;2023-06-22T21:57:16;97562.94;;;19.19;100.00
30081;BME280;16902;50.816;12.828;2023-06-22T22:02:17;97534.13;;;18.84;100.00
30081;BME280;16902;50.816;12.828;2023-06-22T22:07:19;97502.13;;;18.64;100.00
30081;BME280;16902;50.816;12.828;2023-06-22T22:12:21;97486.91;;;18.54;100.00
30081;BME280;16902;50.816;12.828;2023-06-22T22:17:22;97489.22;;;18.50;100.00
30081;BME280;16902;50.816;12.828;2023-06-22T22:22:24;97514.09;;;18.55;100.00
30081;BME280;16902;50.816;12.828;2023-06-22T22:27:26;97443.59;;;18.50;100.00
30081;BME280;16902;50.816;12.828;2023-06-22T22:32:27;97383.56;;;18.52;100.00
30081;BME280;16902;50.816;12.828;2023-06-22T22:37:29;97397.19;;;18.49;100.00
30081;BME280;16902;50.816;12.828;2023-06-22T22:42:31;97449.38;;;18.47;100.00
30081;BME280;16902;50.816;12.828;2023-06-22T22:47:36;97485.44;;;18.46;100.00
30081;BME280;16902;50.816;12.828;2023-06-22T22:52:37;97524.53;;;18.49;100.00
30081;BME280;16902;50.816;12.828;2023-06-22T22:57:39;97590.28;;;18.68;100.00
30081;BME280;16902;50.816;12.828;2023-06-22T23:02:44;97619.97;;;18.63;100.00
30081;BME280;16902;50.816;12.828;2023-06-22T23:07:46;97614.28;;;18.55;100.00
30081;BME280;16902;50.816;12.828;2023-06-22T23:12:48;97617.84;;;18.48;100.00
30081;BME280;16902;50.816;12.828;2023-06-22T23:17:50;97633.53;;;18.55;100.00
30081;BME280;16902;50.816;12.828;2023-06-22T23:22:56;97637.75;;;18.56;100.00
30081;BME280;16902;50.816;12.828;2023-06-22T23:28:00;97606.81;;;18.52;100.00
30081;BME280;16902;50.816;12.828;2023-06-22T23:33:02;97589.03;;;18.59;100.00
30081;BME280;16902;50.816;12.828;2023-06-22T23:38:04;97618.69;;;18.66;100.00
30081;BME280;16902;50.816;12.828;2023-06-22T23:43:06;97651.28;;;18.60;100.00
30081;BME280;16902;50.816;12.828;2023-06-22T23:48:10;97553.28;;;18.51;100.00
30081;BME280;16902;50.816;12.828;2023-06-22T23:53:12;97531.91;;;18.47;100.00
30081;BME280;16902;50.816;12.828;2023-06-22T23:58:14;97476.75;;;18.46;100.00
